createdAt,value
2023-05-02T00:02:10.900Z,42.32
2023-05-02T00:04:38.999Z,41.99
2023-05-02T00:07:07.121Z,42.55
2023-05-02T00:09:35.417Z,42.09
2023-05-02T00:12:04.107Z,42.33
2023-05-02T00:14:31.908Z,42.44
2023-05-02T00:16:59.872Z,42.51
2023-05-02T00:19:29.185Z,42.29
2023-05-02T00:21:56.998Z,42.60
2023-05-02T00:24:24.892Z,42.59
2023-05-02T00:26:52.703Z,42.16
2023-05-02T00:29:20.996Z,42.34
2023-05-02T00:31:48.841Z,42.27
2023-05-02T00:34:16.826Z,41.98
2023-05-02T00:36:47.126Z,42.68
2023-05-02T00:39:14.957Z,42.08
2023-05-02T00:41:42.937Z,42.00
2023-05-02T00:44:10.810Z,42.00
2023-05-02T00:46:39.196Z,42.09
2023-05-02T00:49:07.103Z,42.03
2023-05-02T00:51:35.275Z,41.79
2023-05-02T00:54:05.413Z,41.71
2023-05-02T00:56:33.280Z,42.04
2023-05-02T00:59:01.519Z,42.30
2023-05-02T01:01:40.012Z,42.13
2023-05-02T01:04:23.056Z,42.08
2023-05-02T01:10:53.344Z,41.60
2023-05-02T01:13:24.416Z,41.66
2023-05-02T01:15:54.517Z,41.99
2023-05-02T01:18:27.003Z,41.48
2023-05-02T01:21:07.840Z,41.70
2023-05-02T01:23:45.808Z,41.88
2023-05-02T01:26:28.593Z,41.77
2023-05-02T01:29:00.735Z,41.63
2023-05-02T01:31:32.811Z,41.67
2023-05-02T01:34:03.788Z,42.21
2023-05-02T01:36:33.791Z,42.16
2023-05-02T01:39:03.899Z,42.12
2023-05-02T01:41:33.820Z,42.36
2023-05-02T01:44:04.764Z,42.50
2023-05-02T01:46:38.402Z,42.32
2023-05-02T01:49:12.381Z,42.49
2023-05-02T01:51:47.333Z,42.15
2023-05-02T01:54:17.631Z,42.66
2023-05-02T01:56:47.436Z,42.27
2023-05-02T01:59:20.025Z,42.47
2023-05-02T02:01:49.852Z,42.40
2023-05-02T02:04:19.497Z,42.76
2023-05-02T02:06:52.674Z,42.27
2023-05-02T02:09:21.169Z,42.28
2023-05-02T02:11:55.015Z,42.86
2023-05-02T02:14:29.339Z,42.77
2023-05-02T02:17:01.496Z,42.39
2023-05-02T02:19:31.922Z,42.49
2023-05-02T02:22:01.749Z,42.67
2023-05-02T02:24:31.646Z,43.10
2023-05-02T02:26:59.820Z,42.36
2023-05-02T02:29:29.721Z,42.83
2023-05-02T02:32:00.659Z,42.88
2023-05-02T02:34:29.544Z,42.98
2023-05-02T02:37:05.589Z,43.03
2023-05-02T02:39:49.965Z,42.69
2023-05-02T02:42:26.749Z,43.00
2023-05-02T02:45:10.002Z,43.14
2023-05-02T02:47:46.945Z,43.22
2023-05-02T02:50:21.866Z,43.35
2023-05-02T02:52:56.838Z,43.23
2023-05-02T02:55:38.920Z,43.42
2023-05-02T02:58:20.355Z,43.60
2023-05-02T03:00:56.132Z,43.46
2023-05-02T03:03:29.281Z,43.78
2023-05-02T03:05:59.083Z,43.84
2023-05-02T03:08:27.299Z,43.73
2023-05-02T03:10:55.782Z,43.57
2023-05-02T03:13:25.437Z,43.98
2023-05-02T03:16:21.576Z,43.91
2023-05-02T03:18:49.677Z,43.86
2023-05-02T03:21:17.759Z,44.00
2023-05-02T03:23:45.833Z,44.45
2023-05-02T03:26:14.004Z,44.13
2023-05-02T03:28:42.693Z,44.40
2023-05-02T03:31:13.364Z,44.27
2023-05-02T03:33:41.790Z,44.60
2023-05-02T03:36:10.114Z,44.79
2023-05-02T03:38:38.906Z,44.63
2023-05-02T03:41:07.186Z,44.35
2023-05-02T03:43:35.339Z,44.49
2023-05-02T03:46:08.438Z,44.58
2023-05-02T03:48:38.855Z,44.82
2023-05-02T03:51:10.043Z,44.58
2023-05-02T03:53:38.663Z,44.89
2023-05-02T03:56:08.241Z,45.22
2023-05-02T03:58:37.372Z,44.99
2023-05-02T04:01:05.434Z,45.15
2023-05-02T04:03:33.704Z,44.65
2023-05-02T04:06:03.304Z,44.43
2023-05-02T04:08:31.683Z,44.43
2023-05-02T04:10:59.779Z,44.74
2023-05-02T04:13:29.324Z,45.07
2023-05-02T04:15:57.865Z,45.06
2023-05-02T04:18:27.481Z,44.85
2023-05-02T04:20:55.783Z,44.52
2023-05-02T04:23:25.290Z,44.18
2023-05-02T04:25:54.452Z,44.57
2023-05-02T04:28:23.381Z,44.25
2023-05-02T04:30:51.920Z,44.16
2023-05-02T04:33:20.535Z,44.07
2023-05-02T04:35:48.613Z,44.33
2023-05-02T04:38:17.790Z,44.37
2023-05-02T04:40:47.757Z,44.35
2023-05-02T04:43:16.718Z,44.37
2023-05-02T04:45:45.205Z,44.02
2023-05-02T04:48:16.506Z,44.33
2023-05-02T04:50:47.083Z,43.61
2023-05-02T04:53:15.552Z,44.20
2023-05-02T04:55:44.573Z,43.77
2023-05-02T04:58:14.261Z,43.76
2023-05-02T05:00:44.028Z,43.59
2023-05-02T05:03:13.131Z,43.59
2023-05-02T05:05:41.448Z,43.75
2023-05-02T05:08:12.583Z,43.47
2023-05-02T05:10:43.370Z,43.04
2023-05-02T05:13:12.868Z,42.12
2023-05-02T05:15:45.050Z,41.10
2023-05-02T05:18:14.403Z,39.84
2023-05-02T05:20:42.867Z,38.17
2023-05-02T05:23:11.043Z,36.17
2023-05-02T05:25:41.071Z,34.47
2023-05-02T05:28:10.510Z,32.22
2023-05-02T05:30:39.157Z,30.51
2023-05-02T05:33:10.341Z,29.29
2023-05-02T05:35:39.189Z,28.78
2023-05-02T05:38:07.277Z,28.22
2023-05-02T05:40:35.480Z,27.26
2023-05-02T05:43:03.738Z,26.47
2023-05-02T05:45:31.935Z,25.01
2023-05-02T05:48:00.818Z,24.07
2023-05-02T05:50:31.882Z,23.02
2023-05-02T05:53:02.209Z,21.83
2023-05-02T05:55:30.483Z,22.08
2023-05-02T05:57:58.483Z,22.94
2023-05-02T06:00:27.635Z,23.00
2023-05-02T06:02:56.050Z,22.95
2023-05-02T06:05:24.501Z,22.40
2023-05-02T06:07:54.213Z,21.49
2023-05-02T06:10:22.590Z,20.66
2023-05-02T06:12:51.079Z,21.53
2023-05-02T06:15:19.831Z,22.61
2023-05-02T06:17:48.263Z,22.73
2023-05-02T06:20:18.831Z,22.59
2023-05-02T06:22:47.209Z,23.16
2023-05-02T06:25:17.798Z,24.72
2023-05-02T06:27:48.507Z,27.22
2023-05-02T06:30:16.771Z,28.43
2023-05-02T06:32:45.008Z,29.17
2023-05-02T06:35:15.213Z,29.10
2023-05-02T06:37:44.089Z,28.42
2023-05-02T06:40:13.759Z,26.86
2023-05-02T06:42:45.884Z,25.03
2023-05-02T06:45:14.048Z,23.89
2023-05-02T06:47:42.647Z,22.37
2023-05-02T06:50:12.796Z,21.47
2023-05-02T06:52:49.918Z,21.02
2023-05-02T06:55:18.365Z,20.99
2023-05-02T06:57:49.768Z,21.33
2023-05-02T07:00:19.524Z,21.42
2023-05-02T07:02:49.263Z,21.44
2023-05-02T07:05:18.740Z,21.28
2023-05-02T07:07:48.347Z,21.02
2023-05-02T07:10:16.707Z,20.95
2023-05-02T07:12:48.024Z,20.69
2023-05-02T07:15:16.796Z,20.56
2023-05-02T07:17:49.688Z,20.58
2023-05-02T07:20:17.916Z,19.85
2023-05-02T07:22:48.685Z,20.25
2023-05-02T07:25:17.396Z,19.91
2023-05-02T07:27:45.671Z,20.57
2023-05-02T07:30:15.481Z,20.33
2023-05-02T07:32:44.211Z,21.18
2023-05-02T07:35:12.958Z,21.40
2023-05-02T07:37:42.540Z,21.55
2023-05-02T07:40:12.640Z,22.57
2023-05-02T07:42:42.032Z,22.94
2023-05-02T07:45:14.624Z,23.17
2023-05-02T07:47:46.067Z,23.64
2023-05-02T07:50:14.599Z,24.11
2023-05-02T07:52:42.869Z,24.32
2023-05-02T07:55:13.402Z,24.65
2023-05-02T07:57:42.183Z,24.81
2023-05-02T08:00:11.856Z,24.84
2023-05-02T08:02:40.262Z,24.85
2023-05-02T08:05:11.325Z,25.05
2023-05-02T08:07:40.165Z,23.55
2023-05-02T08:10:11.542Z,23.50
2023-05-02T08:12:41.274Z,24.18
2023-05-02T08:15:13.752Z,24.77
2023-05-02T08:17:42.089Z,25.74
2023-05-02T08:20:12.732Z,26.14
2023-05-02T08:22:41.110Z,26.31
2023-05-02T08:25:11.334Z,26.25
2023-05-02T08:27:51.284Z,26.39
2023-05-02T08:30:22.327Z,27.07
2023-05-02T08:32:59.472Z,27.56
2023-05-02T08:35:30.480Z,28.22
2023-05-02T08:38:00.265Z,28.91
2023-05-02T08:40:40.811Z,29.83
2023-05-02T08:43:13.147Z,30.79
2023-05-02T08:45:43.976Z,31.15
2023-05-02T08:48:17.193Z,31.34
2023-05-02T08:50:48.660Z,31.95
2023-05-02T08:53:22.407Z,32.28
2023-05-02T08:55:51.329Z,32.16
2023-05-02T08:58:20.079Z,32.35
2023-05-02T09:00:55.026Z,32.81
2023-05-02T09:03:31.969Z,32.84
2023-05-02T09:06:13.028Z,33.69
2023-05-02T09:08:49.404Z,33.45
2023-05-02T09:11:18.925Z,33.74
2023-05-02T09:13:52.041Z,33.30
2023-05-02T09:16:23.594Z,33.21
2023-05-02T09:18:55.249Z,33.04
2023-05-02T09:21:26.904Z,32.20
2023-05-02T09:23:57.456Z,32.82
2023-05-02T09:26:33.937Z,32.86
2023-05-02T09:29:11.931Z,33.55
2023-05-02T09:34:14.473Z,34.49
2023-05-02T09:36:47.019Z,35.33
2023-05-02T09:39:19.158Z,35.75
2023-05-02T09:41:51.518Z,36.19
2023-05-02T09:44:21.285Z,36.50
2023-05-02T09:46:51.127Z,36.32
2023-05-02T09:49:22.045Z,36.25
2023-05-02T09:52:16.816Z,36.04
2023-05-02T09:54:48.669Z,34.49
2023-05-02T09:57:17.381Z,33.85
2023-05-02T10:00:00.913Z,34.38
2023-05-02T10:02:34.314Z,34.98
2023-05-02T10:05:05.476Z,35.86
2023-05-02T10:07:37.659Z,36.00
2023-05-02T10:10:10.250Z,36.37
2023-05-02T10:12:43.332Z,36.57
2023-05-02T10:15:18.150Z,36.92
2023-05-02T10:17:50.910Z,37.17
2023-05-02T10:20:25.152Z,38.21
2023-05-02T10:23:02.626Z,39.35
2023-05-02T10:25:33.180Z,38.85
2023-05-02T10:28:11.261Z,37.29
2023-05-02T10:30:41.788Z,37.92
2023-05-02T10:33:10.092Z,39.02
2023-05-02T10:35:49.916Z,40.07
2023-05-02T10:38:24.958Z,41.02
2023-05-02T10:41:00.374Z,41.20
2023-05-02T10:43:33.842Z,41.90
2023-05-02T10:46:05.113Z,41.97
2023-05-02T10:48:34.640Z,42.19
2023-05-02T10:51:04.302Z,43.02
2023-05-02T10:53:37.722Z,43.82
2023-05-02T10:56:23.125Z,44.08
2023-05-02T10:58:56.047Z,44.60
2023-05-02T11:01:40.294Z,45.03
2023-05-02T11:04:11.340Z,45.77
2023-05-02T11:07:18.082Z,46.28
2023-05-02T11:09:51.358Z,46.74
2023-05-02T11:12:45.400Z,48.81
2023-05-02T11:15:14.052Z,50.25
2023-05-02T11:18:02.086Z,52.17
2023-05-02T11:20:33.099Z,52.60
2023-05-02T11:23:27.961Z,53.99
2023-05-02T11:26:01.597Z,55.33
2023-05-02T11:28:48.126Z,55.88
2023-05-02T11:31:57.068Z,56.66
2023-05-02T11:34:27.003Z,56.85
2023-05-02T11:36:56.508Z,58.11
2023-05-02T11:39:24.926Z,59.25
2023-05-02T11:41:55.730Z,58.71
2023-05-02T11:44:24.815Z,57.88
2023-05-02T11:46:55.544Z,57.26
2023-05-02T11:49:24.817Z,56.72
2023-05-02T11:51:55.384Z,55.53
2023-05-02T11:54:24.789Z,54.19
2023-05-02T11:56:55.861Z,53.47
2023-05-02T11:59:26.869Z,53.73
2023-05-02T12:01:56.436Z,52.63
2023-05-02T12:04:26.836Z,53.18
2023-05-02T12:07:02.026Z,53.69
2023-05-02T12:09:31.593Z,53.80
2023-05-02T12:12:03.060Z,53.78
2023-05-02T12:14:35.734Z,53.92
2023-05-02T12:17:08.288Z,52.85
2023-05-02T12:19:40.358Z,51.59
2023-05-02T12:22:10.915Z,49.81
2023-05-02T12:24:39.746Z,49.95
2023-05-02T12:27:17.315Z,49.80
2023-05-02T12:29:47.702Z,49.36
2023-05-02T12:32:17.027Z,48.56
2023-05-02T12:34:45.449Z,48.41
2023-05-02T12:37:14.480Z,47.05
2023-05-02T12:39:47.620Z,46.94
2023-05-02T12:42:21.406Z,46.67
2023-05-02T12:44:52.824Z,46.55
2023-05-02T12:47:25.317Z,46.54
2023-05-02T12:49:55.080Z,47.09
2023-05-02T12:52:45.815Z,45.48
2023-05-02T12:55:18.086Z,45.24
2023-05-02T12:57:51.070Z,44.86
2023-05-02T13:00:22.581Z,43.45
2023-05-02T13:02:51.005Z,42.92
2023-05-02T13:05:23.173Z,42.43
2023-05-02T13:07:51.680Z,42.07
2023-05-02T13:10:24.900Z,43.23
2023-05-02T13:12:58.557Z,43.12
2023-05-02T13:15:27.864Z,43.20
2023-05-02T13:17:57.072Z,43.70
2023-05-02T13:20:28.668Z,44.00
2023-05-02T13:22:56.911Z,43.73
2023-05-02T13:25:29.590Z,43.75
2023-05-02T13:28:03.053Z,43.40
2023-05-02T13:30:47.248Z,43.48
2023-05-02T13:33:18.199Z,43.05
2023-05-02T13:35:46.788Z,42.80
2023-05-02T13:38:23.067Z,41.60
2023-05-02T13:40:54.242Z,41.50
2023-05-02T13:43:27.312Z,41.09
2023-05-02T13:45:58.035Z,40.27
2023-05-02T13:48:26.630Z,38.99
2023-05-02T13:51:02.646Z,38.39
2023-05-02T13:53:33.866Z,38.16
2023-05-02T13:56:08.635Z,37.56
2023-05-02T13:58:47.496Z,37.56
2023-05-02T14:01:18.855Z,37.56
2023-05-02T14:03:48.158Z,37.95
2023-05-02T14:06:22.719Z,38.09
2023-05-02T14:08:56.936Z,38.08
2023-05-02T14:11:26.147Z,37.61
2023-05-02T14:13:58.485Z,37.84
2023-05-02T14:16:27.365Z,38.25
2023-05-02T14:18:58.068Z,38.72
2023-05-02T14:21:27.587Z,39.20
2023-05-02T14:23:58.329Z,38.47
2023-05-02T14:26:26.597Z,38.08
2023-05-02T14:28:57.203Z,38.24
2023-05-02T14:31:28.914Z,38.18
2023-05-02T14:33:59.915Z,38.63
2023-05-02T14:36:32.041Z,37.76
2023-05-02T14:39:00.193Z,37.84
2023-05-02T14:41:32.439Z,37.99
2023-05-02T14:44:07.138Z,38.11
2023-05-02T14:46:38.536Z,37.81
2023-05-02T14:49:07.052Z,37.79
2023-05-02T14:51:35.326Z,37.67
2023-05-02T14:54:04.757Z,37.86
2023-05-02T14:56:33.938Z,37.86
2023-05-02T14:59:03.681Z,37.66
2023-05-02T15:01:34.387Z,37.41
2023-05-02T15:04:06.875Z,37.64
2023-05-02T15:06:36.741Z,37.75
2023-05-02T15:09:06.034Z,38.24
2023-05-02T15:11:34.950Z,38.65
2023-05-02T15:14:07.395Z,37.89
2023-05-02T15:16:37.345Z,37.95
2023-05-02T15:19:07.998Z,38.19
2023-05-02T15:21:39.986Z,38.03
2023-05-02T15:24:16.187Z,38.89
2023-05-02T15:26:49.998Z,38.38
2023-05-02T15:29:20.563Z,38.00
2023-05-02T15:31:50.373Z,38.08
2023-05-02T15:34:19.278Z,38.29
2023-05-02T15:36:49.500Z,37.95
2023-05-02T15:39:20.715Z,38.68
2023-05-02T15:41:48.794Z,38.70
2023-05-02T15:44:19.695Z,38.84
2023-05-02T15:46:48.239Z,39.10
2023-05-02T15:49:18.768Z,39.10
2023-05-02T15:51:47.194Z,39.44
2023-05-02T15:54:15.422Z,39.34
2023-05-02T15:56:48.733Z,39.52
2023-05-02T15:59:18.988Z,39.46
2023-05-02T16:01:52.961Z,39.28
2023-05-02T16:04:25.307Z,39.18
2023-05-02T16:06:59.982Z,39.15
2023-05-02T16:09:28.473Z,39.37
2023-05-02T16:11:56.947Z,39.49
2023-05-02T16:14:26.816Z,39.96
2023-05-02T16:17:00.520Z,39.99
2023-05-02T16:19:30.998Z,40.14
2023-05-02T16:22:02.496Z,40.13
2023-05-02T16:24:34.185Z,40.29
2023-05-02T16:27:03.753Z,40.24
2023-05-02T16:29:32.245Z,40.60
2023-05-02T16:32:02.206Z,40.85
2023-05-02T16:34:32.943Z,40.85
2023-05-02T16:37:06.831Z,41.13
2023-05-02T16:39:38.046Z,41.31
2023-05-02T16:42:08.359Z,41.89
2023-05-02T16:44:40.101Z,41.94
2023-05-02T16:47:11.217Z,42.05
2023-05-02T16:50:03.506Z,42.08
2023-05-02T16:52:32.435Z,42.22
2023-05-02T16:55:04.538Z,42.36
2023-05-02T16:57:33.108Z,42.60
2023-05-02T17:00:04.833Z,42.87
2023-05-02T17:02:36.910Z,42.88
2023-05-02T17:05:06.784Z,42.99
2023-05-02T17:07:34.837Z,43.37
2023-05-02T17:10:06.820Z,43.44
2023-05-02T17:12:39.207Z,43.50
2023-05-02T17:15:09.502Z,43.94
2023-05-02T17:17:38.986Z,43.92
2023-05-02T17:20:11.428Z,44.09
2023-05-02T17:22:41.732Z,44.21
2023-05-02T17:25:12.850Z,44.27
2023-05-02T17:27:42.136Z,44.41
2023-05-02T17:30:13.676Z,44.32
2023-05-02T17:32:45.457Z,44.40
2023-05-02T17:35:18.851Z,44.40
2023-05-02T17:38:02.094Z,44.60
2023-05-02T17:40:31.076Z,44.63
2023-05-02T17:42:59.737Z,44.65
2023-05-02T17:45:32.266Z,45.16
2023-05-02T17:48:13.737Z,45.04
2023-05-02T17:50:43.460Z,45.27
2023-05-02T17:53:11.814Z,44.96
2023-05-02T17:55:46.373Z,45.29
2023-05-02T17:58:14.864Z,45.34
2023-05-02T18:00:44.165Z,45.60
2023-05-02T18:03:14.054Z,45.33
2023-05-02T18:05:46.044Z,45.67
2023-05-02T18:08:17.524Z,45.62
2023-05-02T18:10:58.254Z,45.62
2023-05-02T18:13:39.905Z,45.73
2023-05-02T18:16:08.147Z,45.83
2023-05-02T18:18:39.068Z,45.73
2023-05-02T18:21:10.607Z,45.85
2023-05-02T18:23:40.435Z,46.06
2023-05-02T18:26:15.289Z,45.88
2023-05-02T18:28:48.681Z,46.38
2023-05-02T18:31:18.950Z,46.55
2023-05-02T18:33:49.765Z,46.61
2023-05-02T18:36:27.677Z,46.61
2023-05-02T18:39:00.102Z,47.15
2023-05-02T18:41:31.095Z,47.20
2023-05-02T18:44:01.010Z,46.87
2023-05-02T18:46:29.696Z,46.92
2023-05-02T18:49:00.919Z,47.04
2023-05-02T18:51:30.209Z,46.97
2023-05-02T18:53:59.131Z,46.96
2023-05-02T18:56:28.524Z,47.09
2023-05-02T18:58:56.970Z,46.99
2023-05-02T19:01:28.488Z,47.25
2023-05-02T19:03:57.284Z,46.97
2023-05-02T19:06:28.821Z,47.28
2023-05-02T19:08:56.870Z,46.98
2023-05-02T19:11:25.688Z,47.31
2023-05-02T19:13:59.933Z,47.14
2023-05-02T19:16:30.422Z,47.49
2023-05-02T19:18:59.341Z,47.82
2023-05-02T19:21:31.190Z,48.36
2023-05-02T19:24:03.122Z,48.47
2023-05-02T19:26:32.349Z,48.78
2023-05-02T19:29:00.893Z,49.29
2023-05-02T19:31:29.091Z,49.45
2023-05-02T19:33:57.296Z,49.38
2023-05-02T19:36:27.708Z,49.17
2023-05-02T19:38:58.419Z,49.57
2023-05-02T19:41:27.507Z,49.61
2023-05-02T19:43:59.002Z,49.85
2023-05-02T19:46:27.220Z,49.50
2023-05-02T19:48:55.808Z,50.17
2023-05-02T19:51:28.202Z,50.60
2023-05-02T19:54:00.305Z,50.87
2023-05-02T19:56:30.455Z,50.93
2023-05-02T19:59:01.415Z,50.82
2023-05-02T20:01:31.887Z,50.97
2023-05-02T20:04:00.577Z,51.76
2023-05-02T20:06:29.461Z,51.58
2023-05-02T20:09:03.952Z,51.76
2023-05-02T20:11:34.750Z,51.83
2023-05-02T20:14:03.256Z,52.45
2023-05-02T20:16:33.659Z,52.86
2023-05-02T20:19:02.586Z,52.48
2023-05-02T20:21:34.900Z,52.78
2023-05-02T20:24:05.697Z,52.78
2023-05-02T20:26:35.121Z,53.17
2023-05-02T20:29:06.200Z,52.92
2023-05-02T20:31:48.998Z,53.42
2023-05-02T20:34:18.006Z,53.65
2023-05-02T20:36:46.558Z,53.62
2023-05-02T20:39:21.118Z,53.99
2023-05-02T20:41:49.805Z,54.39
2023-05-02T20:44:22.588Z,54.92
2023-05-02T20:46:52.813Z,55.28
2023-05-02T20:49:24.185Z,55.24
2023-05-02T20:51:52.721Z,55.51
2023-05-02T20:54:22.254Z,55.22
2023-05-02T20:56:51.015Z,56.18
2023-05-02T20:59:19.769Z,55.96
2023-05-02T21:02:00.173Z,57.10
2023-05-02T21:04:29.721Z,56.83
2023-05-02T21:06:58.754Z,57.48
2023-05-02T21:09:31.442Z,57.28
2023-05-02T21:12:05.735Z,56.59
2023-05-02T21:14:37.236Z,56.91
2023-05-02T21:17:06.896Z,57.20
2023-05-02T21:19:34.962Z,57.24
2023-05-02T21:22:04.255Z,57.04
2023-05-02T21:24:34.303Z,57.09
2023-05-02T21:27:03.883Z,56.99
2023-05-02T21:29:32.981Z,57.12
2023-05-02T21:32:01.315Z,57.39
2023-05-02T21:34:31.938Z,57.34
2023-05-02T21:37:02.846Z,57.14
2023-05-02T21:39:33.478Z,57.03
2023-05-02T21:42:03.264Z,57.72
2023-05-02T21:44:32.994Z,57.54
2023-05-02T21:47:04.048Z,58.26
2023-05-02T21:49:32.505Z,59.05
2023-05-02T21:52:01.216Z,59.50
2023-05-02T21:54:32.206Z,60.00
2023-05-02T21:57:00.782Z,59.82
2023-05-02T21:59:31.605Z,59.82
2023-05-02T22:01:59.803Z,59.67
2023-05-02T22:04:38.154Z,60.12
2023-05-02T22:07:09.440Z,60.02
2023-05-02T22:09:40.377Z,59.87
2023-05-02T22:12:09.304Z,59.97
2023-05-02T22:14:45.359Z,60.66
2023-05-02T22:17:14.358Z,60.30
2023-05-02T22:19:42.709Z,60.78
2023-05-02T22:22:11.326Z,60.78
2023-05-02T22:24:41.948Z,60.07
2023-05-02T22:27:10.552Z,60.07
2023-05-02T22:29:40.524Z,60.08
2023-05-02T22:32:11.384Z,60.00
2023-05-02T22:34:39.624Z,60.22
2023-05-02T22:37:07.920Z,61.14
2023-05-02T22:39:36.594Z,60.76
2023-05-02T22:42:05.043Z,60.43
2023-05-02T22:44:37.906Z,60.55
2023-05-02T22:47:15.605Z,61.02
2023-05-02T22:49:44.990Z,61.17
2023-05-02T22:52:15.728Z,60.89
2023-05-02T22:54:46.466Z,60.49
2023-05-02T22:57:15.974Z,59.23
2023-05-02T22:59:43.961Z,57.59
2023-05-02T23:02:16.307Z,57.38
2023-05-02T23:04:44.476Z,57.01
2023-05-02T23:07:14.932Z,56.56
2023-05-02T23:09:44.438Z,56.49
2023-05-02T23:12:12.846Z,55.78
2023-05-02T23:14:43.390Z,55.52
2023-05-02T23:17:11.565Z,55.27
2023-05-02T23:19:44.784Z,55.76
2023-05-02T23:22:16.023Z,55.97
2023-05-02T23:24:46.457Z,55.99
2023-05-02T23:27:14.813Z,56.04
2023-05-02T23:29:42.902Z,56.22
2023-05-02T23:32:12.055Z,55.76
2023-05-02T23:34:41.838Z,55.45
2023-05-02T23:37:10.193Z,55.82
2023-05-02T23:39:38.488Z,54.66
2023-05-02T23:42:08.850Z,54.57
2023-05-02T23:44:37.497Z,54.54
2023-05-02T23:47:06.910Z,54.74
2023-05-02T23:49:37.812Z,54.25
2023-05-02T23:52:09.066Z,54.26
2023-05-02T23:54:37.536Z,54.13
2023-05-02T23:57:09.404Z,54.72
2023-05-02T23:59:37.654Z,54.35
